createdAt,value
2024-01-24T00:00:35.183Z,12.40
2024-01-24T00:03:02.993Z,12.50
2024-01-24T00:05:30.833Z,12.30
2024-01-24T00:07:58.279Z,12.30
2024-01-24T00:10:25.666Z,12.20
2024-01-24T00:12:53.144Z,12.20
2024-01-24T00:15:20.796Z,12.10
2024-01-24T00:17:48.248Z,13.10
2024-01-24T00:20:15.713Z,12.10
2024-01-24T00:22:43.147Z,11.90
2024-01-24T00:25:10.637Z,11.80
2024-01-24T00:27:38.069Z,11.80
2024-01-24T00:30:06.166Z,12.60
2024-01-24T00:32:33.543Z,11.80
2024-01-24T00:35:01.484Z,11.80
2024-01-24T00:37:28.827Z,11.70
2024-01-24T00:39:56.172Z,11.70
2024-01-24T00:42:23.657Z,11.70
2024-01-24T00:44:52.256Z,11.70
2024-01-24T00:47:20.831Z,11.80
2024-01-24T00:49:48.229Z,11.90
2024-01-24T00:52:15.656Z,11.90
2024-01-24T00:54:43.193Z,11.80
2024-01-24T00:57:10.633Z,11.90
2024-01-24T00:59:38.191Z,11.80
2024-01-24T01:02:05.540Z,11.90
2024-01-24T01:04:32.968Z,11.90
2024-01-24T01:07:01.303Z,11.90
2024-01-24T01:09:29.228Z,11.90
2024-01-24T01:11:56.549Z,11.90
2024-01-24T01:14:23.940Z,11.90
2024-01-24T01:16:51.325Z,11.90
2024-01-24T01:19:18.705Z,11.80
2024-01-24T01:21:48.080Z,11.80
2024-01-24T01:24:17.121Z,11.80
2024-01-24T01:26:44.561Z,11.80
2024-01-24T01:29:12.193Z,11.80
2024-01-24T01:31:39.503Z,11.90
2024-01-24T01:34:06.910Z,11.90
2024-01-24T01:36:34.373Z,11.90
2024-01-24T01:39:01.782Z,12.00
2024-01-24T01:41:29.169Z,12.00
2024-01-24T01:43:56.723Z,12.00
2024-01-24T01:46:26.370Z,12.00
2024-01-24T01:48:57.131Z,12.00
2024-01-24T01:51:26.223Z,12.10
2024-01-24T01:53:54.162Z,12.10
2024-01-24T01:56:22.492Z,12.00
2024-01-24T01:58:50.817Z,11.90
2024-01-24T02:01:19.010Z,11.90
2024-01-24T02:03:49.919Z,11.90
2024-01-24T02:06:17.613Z,11.80
2024-01-24T02:08:45.333Z,11.90
2024-01-24T02:11:13.919Z,11.90
2024-01-24T02:13:41.493Z,12.30
2024-01-24T02:16:10.393Z,11.90
2024-01-24T02:18:38.770Z,11.90
2024-01-24T02:21:06.296Z,11.90
2024-01-24T02:23:33.649Z,11.90
2024-01-24T02:26:00.964Z,11.90
2024-01-24T02:28:29.718Z,11.80
2024-01-24T02:30:57.234Z,11.80
2024-01-24T02:33:24.715Z,11.80
2024-01-24T02:35:52.193Z,11.80
2024-01-24T02:38:19.639Z,11.80
2024-01-24T02:40:47.097Z,11.80
2024-01-24T02:43:14.796Z,11.80
2024-01-24T02:45:42.256Z,11.80
2024-01-24T02:48:09.685Z,12.30
2024-01-24T02:50:37.215Z,11.70
2024-01-24T02:53:04.709Z,11.80
2024-01-24T02:55:32.044Z,12.00
2024-01-24T02:57:59.382Z,11.80
2024-01-24T03:00:28.823Z,11.80
2024-01-24T03:02:56.204Z,11.80
2024-01-24T03:05:23.910Z,11.80
2024-01-24T03:07:51.260Z,11.80
2024-01-24T03:10:18.691Z,11.80
2024-01-24T03:12:46.097Z,11.80
2024-01-24T03:15:13.616Z,11.80
2024-01-24T03:17:41.192Z,11.70
2024-01-24T03:20:09.271Z,11.70
2024-01-24T03:22:36.855Z,11.70
2024-01-24T03:25:04.513Z,11.70
2024-01-24T03:27:31.895Z,12.50
2024-01-24T03:29:59.521Z,11.60
2024-01-24T03:32:27.180Z,11.60
2024-01-24T03:34:56.355Z,11.60
2024-01-24T03:37:23.865Z,11.60
2024-01-24T03:39:51.312Z,11.50
2024-01-24T03:42:19.645Z,11.50
2024-01-24T03:44:47.034Z,11.50
2024-01-24T03:47:14.473Z,11.50
2024-01-24T03:49:41.895Z,11.50
2024-01-24T03:52:09.301Z,11.90
2024-01-24T03:54:36.739Z,11.50
2024-01-24T03:57:04.410Z,11.50
2024-01-24T03:59:31.754Z,11.50
2024-01-24T04:01:59.031Z,11.60
2024-01-24T04:04:26.453Z,11.60
2024-01-24T04:06:53.965Z,11.60
2024-01-24T04:09:22.646Z,11.60
2024-01-24T04:11:50.019Z,11.60
2024-01-24T04:14:17.393Z,11.50
2024-01-24T04:16:44.678Z,12.30
2024-01-24T04:19:12.149Z,11.50
2024-01-24T04:21:46.599Z,11.50
2024-01-24T04:24:14.207Z,11.40
2024-01-24T04:26:41.559Z,11.40
2024-01-24T04:29:12.714Z,11.40
2024-01-24T04:31:42.243Z,10.30
2024-01-24T04:34:09.743Z,11.40
2024-01-24T04:36:37.327Z,11.40
2024-01-24T04:39:04.719Z,11.40
2024-01-24T04:41:32.043Z,11.40
2024-01-24T04:43:59.388Z,11.30
2024-01-24T04:46:26.780Z,11.40
2024-01-24T04:48:54.306Z,11.40
2024-01-24T04:51:23.141Z,11.40
2024-01-24T04:53:51.431Z,11.40
2024-01-24T04:56:18.754Z,11.00
2024-01-24T04:58:46.321Z,11.30
2024-01-24T05:01:13.672Z,11.30
2024-01-24T05:03:41.260Z,11.30
2024-01-24T05:06:11.087Z,11.30
2024-01-24T05:08:39.708Z,11.30
2024-01-24T05:11:07.137Z,11.30
2024-01-24T05:13:34.554Z,11.30
2024-01-24T05:16:01.901Z,11.30
2024-01-24T05:18:29.507Z,11.30
2024-01-24T05:20:56.849Z,11.30
2024-01-24T05:23:24.219Z,11.30
2024-01-24T05:25:51.716Z,11.30
2024-01-24T05:28:19.586Z,11.30
2024-01-24T05:30:46.950Z,11.20
2024-01-24T05:33:14.508Z,11.20
2024-01-24T05:35:41.942Z,11.30
2024-01-24T05:38:09.320Z,12.00
2024-01-24T05:40:36.798Z,11.30
2024-01-24T05:43:04.972Z,11.30
2024-01-24T05:45:32.812Z,11.30
2024-01-24T05:48:00.514Z,11.20
2024-01-24T05:50:28.156Z,11.30
2024-01-24T05:52:55.607Z,11.30
2024-01-24T05:55:22.904Z,11.20
2024-01-24T05:57:50.527Z,11.30
2024-01-24T06:00:18.347Z,11.20
2024-01-24T06:02:45.876Z,11.10
2024-01-24T06:05:16.358Z,11.20
2024-01-24T06:07:43.929Z,11.20
2024-01-24T06:10:12.311Z,11.30
2024-01-24T06:12:39.708Z,11.30
2024-01-24T06:15:09.412Z,11.20
2024-01-24T06:17:36.965Z,11.20
2024-01-24T06:20:04.504Z,11.20
2024-01-24T06:22:31.826Z,10.90
2024-01-24T06:25:02.692Z,11.20
2024-01-24T06:27:36.339Z,11.20
2024-01-24T06:30:18.390Z,11.20
2024-01-24T06:32:50.478Z,11.20
2024-01-24T06:35:18.163Z,11.10
2024-01-24T06:37:45.568Z,11.00
2024-01-24T06:40:13.203Z,11.10
2024-01-24T06:42:41.388Z,11.10
2024-01-24T06:45:09.720Z,11.60
2024-01-24T06:47:37.382Z,11.00
2024-01-24T06:50:08.158Z,11.00
2024-01-24T06:52:35.541Z,11.00
2024-01-24T06:55:02.955Z,11.00
2024-01-24T06:57:30.375Z,11.00
2024-01-24T06:59:57.854Z,11.00
2024-01-24T07:02:25.881Z,10.90
2024-01-24T07:04:53.580Z,11.10
2024-01-24T07:07:21.058Z,10.90
2024-01-24T07:09:48.555Z,10.90
2024-01-24T07:12:16.322Z,10.90
2024-01-24T07:14:43.696Z,11.00
2024-01-24T07:17:11.004Z,10.90
2024-01-24T07:19:38.627Z,10.70
2024-01-24T07:22:06.122Z,12.10
2024-01-24T07:24:33.891Z,10.90
2024-01-24T07:27:01.282Z,10.80
2024-01-24T07:29:28.577Z,10.90
2024-01-24T07:31:55.968Z,10.80
2024-01-24T07:34:25.848Z,10.90
2024-01-24T07:36:53.359Z,10.80
2024-01-24T07:39:20.885Z,10.80
2024-01-24T07:41:48.278Z,10.80
2024-01-24T07:44:15.667Z,10.70
2024-01-24T07:46:44.654Z,10.70
2024-01-24T07:49:12.754Z,10.30
2024-01-24T07:51:43.031Z,10.80
2024-01-24T07:54:10.647Z,10.70
2024-01-24T07:56:38.224Z,10.70
2024-01-24T07:59:06.921Z,10.70
2024-01-24T08:01:34.477Z,11.50
2024-01-24T08:04:02.193Z,10.70
2024-01-24T08:06:29.818Z,10.70
2024-01-24T08:08:57.470Z,10.60
2024-01-24T08:11:26.161Z,10.60
2024-01-24T08:13:54.183Z,10.60
2024-01-24T08:16:22.505Z,10.60
2024-01-24T08:18:49.968Z,10.60
2024-01-24T08:21:18.741Z,10.60
2024-01-24T08:23:49.699Z,10.50
2024-01-24T08:26:19.236Z,11.30
2024-01-24T08:28:47.077Z,10.70
2024-01-24T08:31:15.151Z,10.80
2024-01-24T08:33:42.820Z,10.80
2024-01-24T08:36:10.499Z,10.80
2024-01-24T08:38:38.047Z,10.80
2024-01-24T08:41:05.433Z,10.90
2024-01-24T08:43:32.848Z,10.90
2024-01-24T08:46:00.297Z,10.90
2024-01-24T08:48:28.026Z,10.90
2024-01-24T08:50:55.970Z,10.90
2024-01-24T08:53:23.340Z,10.40
2024-01-24T08:55:50.860Z,11.00
2024-01-24T08:58:18.225Z,11.00
2024-01-24T09:00:46.669Z,11.00
2024-01-24T09:03:15.000Z,11.00
2024-01-24T09:05:43.055Z,11.00
2024-01-24T09:08:10.705Z,11.00
2024-01-24T09:10:38.355Z,11.00
2024-01-24T09:13:06.356Z,11.00
2024-01-24T09:15:34.250Z,11.20
2024-01-24T09:18:03.214Z,11.00
2024-01-24T09:20:31.073Z,11.10
2024-01-24T09:22:58.498Z,11.10
2024-01-24T09:25:26.773Z,11.10
2024-01-24T09:27:55.415Z,10.90
2024-01-24T09:30:22.880Z,11.10
2024-01-24T09:32:50.406Z,11.10
2024-01-24T09:35:18.345Z,11.10
2024-01-24T09:37:45.814Z,11.10
2024-01-24T09:42:45.337Z,11.10
2024-01-24T09:45:17.726Z,11.20
2024-01-24T09:47:48.405Z,11.10
2024-01-24T09:50:16.164Z,11.10
2024-01-24T09:52:46.923Z,11.20
2024-01-24T09:55:18.792Z,11.20
2024-01-24T09:57:46.905Z,11.10
2024-01-24T10:00:15.868Z,11.10
2024-01-24T10:02:48.556Z,11.10
2024-01-24T10:05:20.260Z,11.10
2024-01-24T10:07:48.060Z,11.00
2024-01-24T10:10:16.607Z,11.00
2024-01-24T10:12:44.401Z,11.00
2024-01-24T10:15:12.476Z,11.00
2024-01-24T10:17:43.741Z,11.00
2024-01-24T10:20:15.526Z,11.00
2024-01-24T10:22:47.341Z,10.90
2024-01-24T10:25:15.330Z,11.00
2024-01-24T10:27:43.575Z,10.90
2024-01-24T10:30:13.727Z,11.00
2024-01-24T10:32:47.163Z,11.00
2024-01-24T10:35:15.868Z,11.00
2024-01-24T10:37:43.584Z,11.00
2024-01-24T10:40:16.265Z,11.00
2024-01-24T10:42:46.292Z,11.00
2024-01-24T10:45:16.597Z,11.00
2024-01-24T10:47:45.691Z,11.00
2024-01-24T10:50:13.820Z,11.00
2024-01-24T10:52:43.875Z,11.00
2024-01-24T10:55:14.081Z,11.00
2024-01-24T10:57:44.962Z,11.10
2024-01-24T11:00:16.909Z,11.10
2024-01-24T11:02:44.901Z,11.10
2024-01-24T11:05:20.690Z,11.10
2024-01-24T11:08:07.937Z,11.10
2024-01-24T11:10:39.723Z,10.90
2024-01-24T11:13:08.216Z,11.30
2024-01-24T11:15:36.430Z,11.10
2024-01-24T11:18:45.772Z,11.10
2024-01-24T11:21:13.586Z,11.20
2024-01-24T11:23:47.855Z,11.20
2024-01-24T11:26:18.282Z,11.20
2024-01-24T11:28:49.999Z,11.20
2024-01-24T11:31:38.443Z,11.10
2024-01-24T11:34:18.442Z,10.70
2024-01-24T11:36:56.625Z,11.30
2024-01-24T11:39:31.836Z,11.30
2024-01-24T11:42:32.129Z,11.30
2024-01-24T11:45:19.034Z,11.30
2024-01-24T11:47:47.289Z,11.40
2024-01-24T11:50:17.197Z,11.70
2024-01-24T11:52:45.745Z,11.40
2024-01-24T11:55:13.756Z,11.40
2024-01-24T11:57:41.703Z,11.60
2024-01-24T12:00:10.774Z,11.50
2024-01-24T12:02:38.155Z,11.50
2024-01-24T12:05:06.171Z,11.50
2024-01-24T12:07:34.304Z,11.50
2024-01-24T12:10:02.072Z,11.50
2024-01-24T12:12:30.577Z,11.50
2024-01-24T12:14:59.488Z,11.50
2024-01-24T12:17:27.934Z,11.60
2024-01-24T12:19:55.584Z,11.60
2024-01-24T12:22:23.387Z,11.60
2024-01-24T12:24:51.591Z,11.50
2024-01-24T12:27:19.338Z,11.50
2024-01-24T12:29:51.992Z,12.00
2024-01-24T12:32:23.062Z,11.60
2024-01-24T12:34:53.901Z,11.60
2024-01-24T12:37:24.831Z,11.60
2024-01-24T12:39:56.053Z,11.60
2024-01-24T12:42:24.417Z,11.60
2024-01-24T12:44:55.459Z,11.50
2024-01-24T12:47:23.439Z,11.70
2024-01-24T12:49:51.666Z,11.70
2024-01-24T12:52:20.643Z,11.70
2024-01-24T12:54:48.089Z,11.70
2024-01-24T12:57:15.904Z,11.70
2024-01-24T12:59:43.382Z,11.60
2024-01-24T13:02:11.410Z,11.70
2024-01-24T13:04:42.616Z,11.70
2024-01-24T13:07:11.181Z,11.70
2024-01-24T13:09:45.942Z,11.70
2024-01-24T13:12:20.682Z,11.80
2024-01-24T13:14:48.126Z,11.80
2024-01-24T13:17:15.528Z,11.70
2024-01-24T13:19:43.137Z,11.80
2024-01-24T13:22:13.768Z,11.90
2024-01-24T13:24:41.225Z,11.90
2024-01-24T13:27:08.788Z,11.90
2024-01-24T13:29:36.564Z,11.90
2024-01-24T13:32:05.748Z,11.90
2024-01-24T13:34:36.275Z,11.90
2024-01-24T13:37:04.145Z,11.90
2024-01-24T13:39:32.180Z,11.80
2024-01-24T13:41:59.943Z,11.80
2024-01-24T13:44:27.540Z,11.80
2024-01-24T13:46:55.248Z,11.80
2024-01-24T13:49:22.711Z,11.80
2024-01-24T13:51:50.284Z,12.30
2024-01-24T13:54:17.895Z,11.80
2024-01-24T13:56:47.663Z,12.00
2024-01-24T13:59:16.355Z,11.90
2024-01-24T14:01:46.304Z,11.90
2024-01-24T14:04:22.194Z,11.90
2024-01-24T14:06:49.952Z,11.90
2024-01-24T14:09:17.726Z,12.00
2024-01-24T14:11:46.106Z,11.90
2024-01-24T14:14:13.552Z,11.80
2024-01-24T14:16:40.917Z,12.00
2024-01-24T14:19:09.358Z,12.10
2024-01-24T14:21:37.000Z,12.10
2024-01-24T14:24:04.721Z,12.20
2024-01-24T14:26:32.141Z,12.20
2024-01-24T14:29:00.493Z,12.20
2024-01-24T14:31:27.859Z,12.10
2024-01-24T14:33:55.413Z,12.10
2024-01-24T14:36:35.001Z,12.10
2024-01-24T14:39:02.492Z,12.10
2024-01-24T14:41:30.218Z,12.10
2024-01-24T14:43:57.686Z,12.00
2024-01-24T14:46:27.901Z,12.10
2024-01-24T14:48:55.418Z,12.10
2024-01-24T14:51:23.672Z,12.10
2024-01-24T14:53:52.348Z,12.00
2024-01-24T14:56:19.750Z,12.10
2024-01-24T14:58:47.704Z,12.00
2024-01-24T15:01:19.079Z,12.30
2024-01-24T15:03:48.581Z,12.00
2024-01-24T15:06:16.265Z,12.00
2024-01-24T15:08:43.884Z,11.90
2024-01-24T15:11:11.231Z,11.90
2024-01-24T15:13:40.254Z,11.90
2024-01-24T15:16:07.801Z,11.90
2024-01-24T15:18:35.895Z,11.90
2024-01-24T15:21:08.955Z,11.90
2024-01-24T15:23:40.777Z,11.90
2024-01-24T15:26:09.530Z,12.00
2024-01-24T15:28:40.151Z,11.90
2024-01-24T15:31:08.828Z,11.80
2024-01-24T15:33:36.413Z,11.80
2024-01-24T15:36:04.087Z,11.80
2024-01-24T15:38:31.532Z,11.80
2024-01-24T15:40:58.904Z,11.80
2024-01-24T15:43:29.236Z,11.80
2024-01-24T15:45:57.977Z,11.80
2024-01-24T15:48:26.221Z,11.80
2024-01-24T15:50:53.687Z,11.80
2024-01-24T15:53:21.048Z,12.50
2024-01-24T15:55:50.772Z,11.80
2024-01-24T15:58:18.471Z,12.00
2024-01-24T16:00:46.775Z,11.70
2024-01-24T16:03:14.616Z,11.70
2024-01-24T16:05:47.267Z,11.70
2024-01-24T16:08:16.189Z,11.50
2024-01-24T16:10:44.447Z,11.70
2024-01-24T16:13:12.070Z,11.80
2024-01-24T16:15:39.756Z,11.70
2024-01-24T16:18:07.944Z,12.10
2024-01-24T16:20:40.941Z,11.70
2024-01-24T16:23:08.414Z,11.60
2024-01-24T16:25:35.887Z,11.70
2024-01-24T16:28:04.036Z,11.60
2024-01-24T16:30:36.278Z,11.40
2024-01-24T16:33:04.037Z,11.60
2024-01-24T16:35:33.996Z,11.60
2024-01-24T16:38:02.144Z,11.60
2024-01-24T16:40:29.574Z,11.60
2024-01-24T16:42:58.039Z,11.60
2024-01-24T16:45:25.601Z,11.60
2024-01-24T16:47:53.175Z,11.60
2024-01-24T16:50:20.760Z,11.50
2024-01-24T16:52:54.682Z,11.50
2024-01-24T16:55:22.475Z,11.60
2024-01-24T16:57:50.081Z,11.60
2024-01-24T17:00:19.110Z,11.50
2024-01-24T17:02:51.330Z,11.60
2024-01-24T17:05:22.202Z,11.40
2024-01-24T17:07:49.647Z,11.50
2024-01-24T17:10:18.208Z,12.20
2024-01-24T17:12:45.660Z,11.50
2024-01-24T17:15:14.880Z,11.50
2024-01-24T17:18:05.086Z,11.50
2024-01-24T17:20:33.564Z,11.30
2024-01-24T17:23:01.025Z,11.50
2024-01-24T17:25:30.990Z,11.40
2024-01-24T17:28:01.634Z,11.40
2024-01-24T17:30:29.198Z,11.40
2024-01-24T17:32:58.696Z,11.40
2024-01-24T17:35:26.552Z,11.40
2024-01-24T17:37:53.993Z,11.40
2024-01-24T17:40:21.768Z,11.40
2024-01-24T17:42:49.635Z,11.40
2024-01-24T17:45:18.016Z,11.00
2024-01-24T17:47:45.556Z,11.40
2024-01-24T17:50:13.407Z,11.40
2024-01-24T17:52:45.521Z,11.40
2024-01-24T17:55:13.179Z,11.40
2024-01-24T17:57:40.894Z,11.50
2024-01-24T18:00:09.055Z,11.40
2024-01-24T18:02:36.460Z,11.30
2024-01-24T18:05:04.858Z,11.30
2024-01-24T18:07:32.798Z,11.20
2024-01-24T18:10:00.640Z,11.30
2024-01-24T18:12:28.309Z,11.30
2024-01-24T18:14:55.714Z,11.20
2024-01-24T18:17:23.210Z,11.20
2024-01-24T18:19:52.378Z,11.20
2024-01-24T18:22:19.949Z,11.20
2024-01-24T18:24:47.943Z,11.10
2024-01-24T18:27:15.545Z,12.00
2024-01-24T18:29:43.167Z,11.20
2024-01-24T18:32:11.384Z,11.20
2024-01-24T18:34:39.367Z,11.10
2024-01-24T18:37:07.020Z,11.10
2024-01-24T18:39:35.481Z,11.10
2024-01-24T18:42:04.033Z,11.10
2024-01-24T18:44:31.395Z,11.10
2024-01-24T18:47:00.013Z,11.00
2024-01-24T18:49:27.700Z,11.00
2024-01-24T18:51:55.355Z,10.90
2024-01-24T18:54:22.835Z,11.00
2024-01-24T18:56:50.369Z,10.90
2024-01-24T18:59:18.769Z,11.00
2024-01-24T19:01:46.788Z,11.00
2024-01-24T19:04:16.669Z,10.90
2024-01-24T19:06:45.197Z,10.90
2024-01-24T19:09:12.812Z,11.20
2024-01-24T19:11:40.250Z,10.90
2024-01-24T19:14:07.774Z,10.90
2024-01-24T19:16:35.751Z,10.80
2024-01-24T19:19:04.540Z,10.90
2024-01-24T19:21:31.992Z,10.90
2024-01-24T19:23:59.546Z,10.90
2024-01-24T19:26:32.751Z,10.90
2024-01-24T19:29:00.225Z,10.90
2024-01-24T19:31:27.658Z,10.90
2024-01-24T19:33:56.033Z,10.80
2024-01-24T19:36:23.481Z,10.80
2024-01-24T19:38:50.858Z,10.60
2024-01-24T19:41:18.372Z,10.90
2024-01-24T19:43:45.875Z,10.90
2024-01-24T19:46:15.050Z,10.90
2024-01-24T19:48:44.685Z,11.00
2024-01-24T19:51:12.772Z,11.00
2024-01-24T19:53:41.060Z,11.00
2024-01-24T19:56:08.461Z,11.00
2024-01-24T19:58:36.480Z,11.00
2024-01-24T20:01:05.903Z,11.00
2024-01-24T20:03:34.047Z,11.00
2024-01-24T20:06:04.369Z,10.90
2024-01-24T20:08:31.753Z,10.90
2024-01-24T20:10:59.593Z,10.80
2024-01-24T20:13:27.131Z,10.80
2024-01-24T20:15:57.552Z,10.70
2024-01-24T20:18:26.595Z,10.70
2024-01-24T20:20:54.823Z,12.00
2024-01-24T20:23:22.573Z,10.60
2024-01-24T20:25:50.047Z,10.80
2024-01-24T20:28:17.805Z,10.60
2024-01-24T20:30:46.329Z,10.60
2024-01-24T20:33:13.875Z,10.70
2024-01-24T20:35:41.365Z,10.60
2024-01-24T20:38:09.140Z,10.50
2024-01-24T20:40:37.775Z,10.50
2024-01-24T20:43:05.333Z,10.50
2024-01-24T20:45:34.240Z,10.70
2024-01-24T20:48:07.689Z,10.40
2024-01-24T20:50:44.005Z,10.40
2024-01-24T20:53:14.083Z,10.40
2024-01-24T20:55:41.585Z,10.30
2024-01-24T20:58:10.285Z,11.00
2024-01-24T21:00:37.858Z,10.30
2024-01-24T21:03:05.779Z,10.20
2024-01-24T21:05:33.311Z,10.20
2024-01-24T21:08:01.079Z,10.20
2024-01-24T21:10:29.249Z,10.10
2024-01-24T21:12:56.946Z,10.10
2024-01-24T21:15:24.355Z,10.10
2024-01-24T21:17:53.225Z,10.10
2024-01-24T21:20:23.473Z,10.10
2024-01-24T21:22:51.067Z,10.00
2024-01-24T21:25:19.245Z,10.00
2024-01-24T21:27:46.771Z,10.00
2024-01-24T21:30:15.031Z,10.00
2024-01-24T21:32:42.558Z,10.00
2024-01-24T21:35:10.542Z,9.90
2024-01-24T21:37:39.593Z,9.40
2024-01-24T21:40:08.662Z,9.80
2024-01-24T21:42:37.739Z,9.80
2024-01-24T21:45:05.755Z,9.80
2024-01-24T21:47:33.361Z,9.70
2024-01-24T21:50:00.856Z,9.70
2024-01-24T21:52:28.578Z,9.70
2024-01-24T21:54:57.712Z,9.70
2024-01-24T21:57:25.235Z,9.60
2024-01-24T21:59:52.812Z,9.60
2024-01-24T22:02:20.243Z,9.60
2024-01-24T22:04:47.677Z,9.60
2024-01-24T22:07:15.258Z,9.60
2024-01-24T22:09:42.836Z,9.60
2024-01-24T22:12:10.912Z,9.70
2024-01-24T22:14:38.873Z,9.60
2024-01-24T22:17:06.329Z,9.60
2024-01-24T22:19:33.867Z,9.60
2024-01-24T22:22:01.436Z,9.70
2024-01-24T22:24:28.946Z,9.70
2024-01-24T22:26:56.503Z,9.60
2024-01-24T22:29:24.003Z,9.60
2024-01-24T22:31:51.348Z,9.60
2024-01-24T22:34:19.490Z,9.60
2024-01-24T22:36:47.015Z,9.60
2024-01-24T22:39:14.406Z,10.10
2024-01-24T22:41:45.003Z,9.60
2024-01-24T22:44:12.785Z,9.60
2024-01-24T22:46:41.180Z,9.60
2024-01-24T22:49:09.395Z,9.50
2024-01-24T22:51:37.771Z,9.60
2024-01-24T22:54:05.666Z,9.60
2024-01-24T22:56:33.185Z,9.60
2024-01-24T22:59:00.591Z,9.50
2024-01-24T23:01:29.343Z,9.50
2024-01-24T23:03:57.172Z,9.50
2024-01-24T23:06:24.788Z,9.50
2024-01-24T23:08:52.228Z,9.50
2024-01-24T23:11:19.906Z,9.40
2024-01-24T23:13:47.674Z,9.50
2024-01-24T23:16:15.132Z,9.50
2024-01-24T23:18:42.652Z,9.50
2024-01-24T23:21:10.018Z,9.40
2024-01-24T23:23:37.589Z,9.40
2024-01-24T23:26:05.056Z,9.40
2024-01-24T23:28:32.570Z,9.30
2024-01-24T23:31:00.296Z,9.30
2024-01-24T23:33:31.523Z,9.30
2024-01-24T23:35:59.128Z,9.30
2024-01-24T23:38:26.583Z,9.30
2024-01-24T23:40:53.989Z,9.20
2024-01-24T23:43:21.946Z,9.10
2024-01-24T23:45:49.768Z,9.20
2024-01-24T23:48:17.242Z,9.20
2024-01-24T23:50:44.881Z,9.10
2024-01-24T23:53:13.482Z,9.10
2024-01-24T23:55:40.965Z,9.10
2024-01-24T23:58:08.358Z,9.20
